createdAt,value
2018-06-18T00:00:40.459Z,95855.00
2018-06-18T00:03:11.879Z,95853.00
2018-06-18T00:05:43.174Z,95854.00
2018-06-18T00:08:14.732Z,95854.00
2018-06-18T00:10:45.839Z,95859.00
2018-06-18T00:13:17.495Z,95859.00
2018-06-18T00:15:48.754Z,95856.00
2018-06-18T00:18:20.201Z,95854.00
2018-06-18T00:20:51.849Z,95853.00
2018-06-18T00:23:23.542Z,95854.00
2018-06-18T00:25:54.832Z,95856.00
2018-06-18T00:28:26.069Z,95855.00
2018-06-18T00:30:57.471Z,95861.00
2018-06-18T00:33:28.960Z,95860.00
2018-06-18T00:36:00.035Z,95869.00
2018-06-18T00:38:31.309Z,95870.00
2018-06-18T00:41:02.761Z,95865.00
2018-06-18T00:43:34.201Z,95864.00
2018-06-18T00:46:05.690Z,95865.00
2018-06-18T00:48:37.019Z,95857.00
2018-06-18T00:51:08.260Z,95861.00
2018-06-18T00:53:39.403Z,95856.00
2018-06-18T00:56:12.986Z,95846.00
2018-06-18T00:58:44.310Z,95850.00
2018-06-18T01:01:15.573Z,95851.00
2018-06-18T01:03:47.042Z,95852.00
2018-06-18T01:06:18.287Z,95850.00
2018-06-18T01:08:49.787Z,95844.00
2018-06-18T01:11:21.019Z,95849.00
2018-06-18T01:13:52.309Z,95852.00
2018-06-18T01:16:23.511Z,95853.00
2018-06-18T01:18:55.644Z,95855.00
2018-06-18T01:21:26.821Z,95860.00
2018-06-18T01:25:05.483Z,95856.00
2018-06-18T01:27:36.619Z,95855.00
2018-06-18T01:30:08.151Z,95858.00
2018-06-18T01:32:39.556Z,95857.00
2018-06-18T01:35:10.969Z,95857.00
2018-06-18T01:37:42.030Z,95851.00
2018-06-18T01:40:13.373Z,95849.00
2018-06-18T01:42:44.639Z,95852.00
2018-06-18T01:45:16.067Z,95853.00
2018-06-18T01:47:47.105Z,95856.00
2018-06-18T01:50:18.349Z,95855.00
2018-06-18T01:52:49.580Z,95856.00
2018-06-18T01:55:21.094Z,95861.00
2018-06-18T01:57:52.106Z,95856.00
2018-06-18T02:00:23.798Z,95853.00
2018-06-18T02:02:55.067Z,95858.00
2018-06-18T02:05:26.267Z,95861.00
2018-06-18T02:07:57.552Z,95863.00
2018-06-18T02:10:29.384Z,95865.00
2018-06-18T02:13:00.919Z,95868.00
2018-06-18T02:15:33.472Z,95873.00
2018-06-18T02:18:04.856Z,95876.00
2018-06-18T02:20:36.975Z,95871.00
2018-06-18T02:23:08.332Z,95874.00
2018-06-18T02:25:39.662Z,95877.00
2018-06-18T02:28:15.541Z,95870.00
2018-06-18T02:30:52.495Z,95869.00
2018-06-18T02:33:28.515Z,95875.00
2018-06-18T02:36:04.846Z,95871.00
2018-06-18T02:38:41.127Z,95879.00
2018-06-18T02:41:12.386Z,95876.00
2018-06-18T02:43:43.663Z,95877.00
2018-06-18T02:46:14.903Z,95879.00
2018-06-18T02:48:46.093Z,95873.00
2018-06-18T02:51:17.557Z,95875.00
2018-06-18T02:53:48.769Z,95880.00
2018-06-18T02:56:22.959Z,95879.00
2018-06-18T02:58:54.037Z,95878.00
2018-06-18T03:01:25.213Z,95874.00
2018-06-18T03:03:56.393Z,95877.00
2018-06-18T03:06:28.371Z,95880.00
2018-06-18T03:08:59.603Z,95887.00
2018-06-18T03:11:31.081Z,95890.00
2018-06-18T03:14:02.262Z,95888.00
2018-06-18T03:16:34.384Z,95897.00
2018-06-18T03:19:11.156Z,95903.00
2018-06-18T03:21:47.331Z,95909.00
2018-06-18T03:24:23.389Z,95914.00
2018-06-18T03:26:59.666Z,95915.00
2018-06-18T03:29:33.054Z,95911.00
2018-06-18T03:32:09.874Z,95913.00
2018-06-18T03:34:41.320Z,95914.00
2018-06-18T03:37:14.945Z,95918.00
2018-06-18T03:39:46.149Z,95923.00
2018-06-18T03:42:17.432Z,95929.00
2018-06-18T03:45:52.149Z,95925.00
2018-06-18T03:48:23.699Z,95927.00
2018-06-18T03:50:54.937Z,95926.00
2018-06-18T03:53:26.262Z,95925.00
2018-06-18T03:56:00.002Z,95922.00
2018-06-18T03:58:32.149Z,95919.00
2018-06-18T04:01:19.065Z,95927.00
2018-06-18T04:03:56.092Z,95927.00
2018-06-18T04:06:32.485Z,95922.00
2018-06-18T04:09:09.116Z,95921.00
2018-06-18T04:11:45.246Z,95918.00
2018-06-18T04:14:17.011Z,95919.00
2018-06-18T04:16:48.178Z,95915.00
2018-06-18T04:19:19.409Z,95915.00
2018-06-18T04:21:51.744Z,95912.00
2018-06-18T04:24:24.460Z,95911.00
2018-06-18T04:26:56.243Z,95913.00
2018-06-18T04:29:27.800Z,95917.00
2018-06-18T04:31:58.916Z,95918.00
2018-06-18T04:34:37.107Z,95919.00
2018-06-18T04:37:09.181Z,95913.00
2018-06-18T04:39:40.428Z,95919.00
2018-06-18T04:42:16.590Z,95920.00
2018-06-18T04:44:52.798Z,95921.00
2018-06-18T04:47:28.976Z,95919.00
2018-06-18T04:50:05.903Z,95921.00
2018-06-18T04:52:37.096Z,95925.00
2018-06-18T04:55:08.878Z,95934.00
2018-06-18T04:57:40.050Z,95926.00
2018-06-18T05:00:23.850Z,95926.00
2018-06-18T05:02:55.237Z,95916.00
2018-06-18T05:05:26.345Z,95924.00
2018-06-18T05:08:06.305Z,95931.00
2018-06-18T05:10:37.539Z,95929.00
2018-06-18T05:13:08.771Z,95934.00
2018-06-18T05:15:41.454Z,95935.00
2018-06-18T05:18:12.519Z,95931.00
2018-06-18T05:20:43.873Z,95927.00
2018-06-18T05:23:18.561Z,95928.00
2018-06-18T05:25:54.470Z,95923.00
2018-06-18T05:28:27.866Z,95920.00
2018-06-18T05:30:59.856Z,95922.00
2018-06-18T05:33:31.077Z,95922.00
2018-06-18T05:36:02.478Z,95921.00
2018-06-18T05:38:35.782Z,95922.00
2018-06-18T05:41:07.032Z,95925.00
2018-06-18T05:43:40.392Z,95921.00
2018-06-18T05:46:12.151Z,95926.00
2018-06-18T05:48:43.604Z,95926.00
2018-06-18T05:51:31.897Z,95928.00
2018-06-18T05:54:03.210Z,95932.00
2018-06-18T05:56:35.198Z,95937.00
2018-06-18T05:59:08.907Z,95942.00
2018-06-18T06:01:42.398Z,95942.00
2018-06-18T06:04:13.977Z,95942.00
2018-06-18T06:06:45.190Z,95943.00
2018-06-18T06:09:16.823Z,95936.00
2018-06-18T06:11:48.153Z,95938.00
2018-06-18T06:14:19.649Z,95943.00
2018-06-18T06:16:52.532Z,95950.00
2018-06-18T06:19:24.433Z,95950.00
2018-06-18T06:21:55.490Z,95958.00
2018-06-18T06:24:26.821Z,95955.00
2018-06-18T06:26:58.013Z,95956.00
2018-06-18T06:29:29.286Z,95959.00
2018-06-18T06:32:00.427Z,95957.00
2018-06-18T06:34:31.841Z,95956.00
2018-06-18T06:37:03.214Z,95956.00
2018-06-18T06:39:35.350Z,95965.00
2018-06-18T06:42:12.471Z,95973.00
2018-06-18T06:44:43.603Z,95976.00
2018-06-18T06:47:14.925Z,95972.00
2018-06-18T06:49:47.282Z,95972.00
2018-06-18T06:52:18.786Z,95972.00
2018-06-18T06:54:51.449Z,95975.00
2018-06-18T06:57:23.006Z,95981.00
2018-06-18T06:59:54.263Z,95986.00
2018-06-18T07:02:25.487Z,95978.00
2018-06-18T07:04:57.069Z,95982.00
2018-06-18T07:07:28.108Z,95987.00
2018-06-18T07:09:59.281Z,95989.00
2018-06-18T07:12:30.587Z,95984.00
2018-06-18T07:15:01.743Z,95980.00
2018-06-18T07:17:33.566Z,95982.00
2018-06-18T07:20:04.897Z,95987.00
2018-06-18T07:22:36.239Z,95988.00
2018-06-18T07:25:07.421Z,95995.00
2018-06-18T07:27:38.725Z,95992.00
2018-06-18T07:30:10.292Z,95992.00
2018-06-18T07:32:41.399Z,95986.00
2018-06-18T07:35:12.486Z,95983.00
2018-06-18T07:37:43.645Z,95988.00
2018-06-18T07:40:15.202Z,95988.00
2018-06-18T07:42:46.583Z,95987.00
2018-06-18T07:45:23.164Z,95985.00
2018-06-18T07:47:54.708Z,95978.00
2018-06-18T07:50:26.395Z,95957.00
2018-06-18T07:52:57.387Z,95956.00
2018-06-18T07:55:29.454Z,95950.00
2018-06-18T07:58:01.056Z,95957.00
2018-06-18T08:00:32.194Z,95972.00
2018-06-18T08:03:03.565Z,95967.00
2018-06-18T08:05:34.822Z,95970.00
2018-06-18T08:08:06.079Z,95967.00
2018-06-18T08:10:37.254Z,95963.00
2018-06-18T08:13:08.541Z,95970.00
2018-06-18T08:15:41.284Z,95971.00
2018-06-18T08:18:13.340Z,95975.00
2018-06-18T08:20:44.718Z,95978.00
2018-06-18T08:23:15.740Z,95983.00
2018-06-18T08:25:47.595Z,95978.00
2018-06-18T08:28:19.356Z,95984.00
2018-06-18T08:30:52.919Z,95986.00
2018-06-18T08:33:24.480Z,95981.00
2018-06-18T08:35:55.855Z,95982.00
2018-06-18T08:38:27.961Z,95986.00
2018-06-18T08:40:59.413Z,95985.00
2018-06-18T08:43:30.891Z,95985.00
2018-06-18T08:46:02.105Z,95982.00
2018-06-18T08:48:38.248Z,95993.00
2018-06-18T08:51:15.058Z,95988.00
2018-06-18T08:53:51.701Z,95990.00
2018-06-18T08:57:29.116Z,95987.00
2018-06-18T09:00:05.397Z,95989.00
2018-06-18T09:02:36.640Z,95994.00
2018-06-18T09:05:12.347Z,95998.00
2018-06-18T09:07:48.675Z,95990.00
2018-06-18T09:10:20.244Z,95988.00
2018-06-18T09:12:51.485Z,95992.00
2018-06-18T09:15:23.905Z,95992.00
2018-06-18T09:17:56.468Z,95999.00
2018-06-18T09:20:27.660Z,95998.00
2018-06-18T09:22:58.822Z,96000.00
2018-06-18T09:25:30.447Z,96010.00
2018-06-18T09:28:01.918Z,96009.00
2018-06-18T09:30:34.735Z,96005.00
2018-06-18T09:33:06.026Z,96007.00
2018-06-18T09:35:37.392Z,96007.00
2018-06-18T09:38:09.865Z,95998.00
2018-06-18T09:40:50.130Z,96003.00
2018-06-18T09:43:24.448Z,95997.00
2018-06-18T09:46:00.511Z,95996.00
2018-06-18T09:50:50.818Z,95990.00
2018-06-18T09:53:26.862Z,95998.00
2018-06-18T09:56:02.907Z,95995.00
2018-06-18T09:59:37.715Z,95994.00
2018-06-18T10:02:09.792Z,95985.00
2018-06-18T10:04:40.916Z,95991.00
2018-06-18T10:07:13.235Z,95996.00
2018-06-18T10:09:44.428Z,96002.00
2018-06-18T10:12:15.795Z,95997.00
2018-06-18T10:14:47.138Z,96000.00
2018-06-18T10:17:19.130Z,96003.00
2018-06-18T10:19:51.742Z,96006.00
2018-06-18T10:22:23.570Z,96004.00
2018-06-18T10:24:55.387Z,95998.00
2018-06-18T10:27:27.702Z,96007.00
2018-06-18T10:29:59.874Z,96002.00
2018-06-18T10:32:36.137Z,96004.00
2018-06-18T10:36:13.294Z,95997.00
2018-06-18T10:38:49.501Z,96002.00
2018-06-18T10:41:26.127Z,95999.00
2018-06-18T10:43:57.486Z,95999.00
2018-06-18T10:46:29.471Z,96004.00
2018-06-18T10:49:00.931Z,96003.00
2018-06-18T10:51:33.513Z,96009.00
2018-06-18T10:54:05.997Z,96006.00
2018-06-18T10:56:37.995Z,96016.00
2018-06-18T10:59:09.186Z,96005.00
2018-06-18T11:01:43.137Z,96004.00
2018-06-18T11:04:34.752Z,96006.00
2018-06-18T11:07:07.574Z,96008.00
2018-06-18T11:09:38.664Z,96007.00
2018-06-18T11:12:09.833Z,96006.00
2018-06-18T11:14:41.659Z,96007.00
2018-06-18T11:17:18.768Z,95996.00
2018-06-18T11:19:55.570Z,95990.00
2018-06-18T11:22:38.516Z,95991.00
2018-06-18T11:25:25.497Z,95991.00
2018-06-18T11:27:59.906Z,95988.00
2018-06-18T11:30:33.177Z,95982.00
2018-06-18T11:33:06.436Z,95975.00
2018-06-18T11:35:37.571Z,95977.00
2018-06-18T11:38:10.347Z,95975.00
2018-06-18T11:40:41.988Z,95974.00
2018-06-18T11:43:16.262Z,95971.00
2018-06-18T11:45:48.626Z,95966.00
2018-06-18T11:48:22.180Z,95963.00
2018-06-18T11:50:53.626Z,95969.00
2018-06-18T11:53:25.015Z,95964.00
2018-06-18T11:55:56.535Z,95972.00
2018-06-18T11:59:33.479Z,95959.00
2018-06-18T12:02:09.569Z,95964.00
2018-06-18T12:04:45.818Z,95969.00
2018-06-18T12:07:22.512Z,95974.00
2018-06-18T12:09:54.363Z,95975.00
2018-06-18T12:12:26.146Z,95978.00
2018-06-18T12:14:57.323Z,95973.00
2018-06-18T12:17:28.452Z,95973.00
2018-06-18T12:19:59.778Z,95972.00
2018-06-18T12:22:30.866Z,95970.00
2018-06-18T12:25:02.249Z,95961.00
2018-06-18T12:27:35.435Z,95967.00
2018-06-18T12:30:06.770Z,95968.00
2018-06-18T12:32:37.882Z,95970.00
2018-06-18T12:35:09.171Z,95957.00
2018-06-18T12:37:41.223Z,95951.00
2018-06-18T12:40:12.367Z,95955.00
2018-06-18T12:42:43.621Z,95960.00
2018-06-18T12:45:22.343Z,95966.00
2018-06-18T12:47:59.229Z,95963.00
2018-06-18T12:50:36.216Z,95967.00
2018-06-18T12:53:12.192Z,95965.00
2018-06-18T12:55:48.537Z,95967.00
2018-06-18T12:58:19.558Z,95967.00
2018-06-18T13:00:51.154Z,95956.00
2018-06-18T13:03:22.739Z,95957.00
2018-06-18T13:05:54.076Z,95955.00
2018-06-18T13:08:25.254Z,95963.00
2018-06-18T13:10:56.431Z,95956.00
2018-06-18T13:13:27.783Z,95961.00
2018-06-18T13:15:58.920Z,95953.00
2018-06-18T13:18:30.072Z,95953.00
2018-06-18T13:21:01.348Z,95960.00
2018-06-18T13:23:32.712Z,95960.00
2018-06-18T13:26:04.064Z,95958.00
2018-06-18T13:28:36.142Z,95959.00
2018-06-18T13:31:07.895Z,95965.00
2018-06-18T13:33:39.481Z,95961.00
2018-06-18T13:36:10.773Z,95959.00
2018-06-18T13:38:49.726Z,95960.00
2018-06-18T13:41:34.450Z,95963.00
2018-06-18T13:48:39.674Z,95956.00
2018-06-18T13:51:52.224Z,95960.00
2018-06-18T13:55:08.407Z,95959.00
2018-06-18T13:57:43.612Z,95967.00
2018-06-18T14:00:15.058Z,95961.00
2018-06-18T14:02:46.128Z,95956.00
2018-06-18T14:05:17.293Z,95965.00
2018-06-18T14:07:48.502Z,95954.00
2018-06-18T14:10:19.941Z,95962.00
2018-06-18T14:12:51.092Z,95959.00
2018-06-18T14:15:22.344Z,95965.00
2018-06-18T14:17:53.377Z,95966.00
2018-06-18T14:20:26.552Z,95953.00
2018-06-18T14:22:57.486Z,95963.00
2018-06-18T14:25:28.643Z,95951.00
2018-06-18T14:27:59.793Z,95960.00
2018-06-18T14:30:35.885Z,95958.00
2018-06-18T14:33:12.029Z,95953.00
2018-06-18T14:35:48.456Z,95954.00
2018-06-18T14:38:24.495Z,95955.00
2018-06-18T14:40:55.852Z,95957.00
2018-06-18T14:43:27.775Z,95968.00
2018-06-18T14:45:59.276Z,95966.00
2018-06-18T14:48:33.036Z,95964.00
2018-06-18T14:51:04.281Z,95965.00
2018-06-18T14:53:35.610Z,95967.00
2018-06-18T14:56:18.218Z,95973.00
2018-06-18T14:59:13.494Z,95972.00
2018-06-18T15:01:44.855Z,95971.00
2018-06-18T15:04:15.989Z,95964.00
2018-06-18T15:06:47.361Z,95965.00
2018-06-18T15:09:20.228Z,95962.00
2018-06-18T15:11:52.775Z,95968.00
2018-06-18T15:14:23.873Z,95964.00
2018-06-18T15:16:55.070Z,95972.00
2018-06-18T15:19:28.444Z,95966.00
2018-06-18T15:22:00.873Z,95964.00
2018-06-18T15:24:40.757Z,95965.00
2018-06-18T15:27:11.991Z,95965.00
2018-06-18T15:29:42.953Z,95969.00
2018-06-18T15:32:14.371Z,95968.00
2018-06-18T15:34:45.637Z,95966.00
2018-06-18T15:37:16.870Z,95967.00
2018-06-18T15:39:48.136Z,95963.00
2018-06-18T15:42:19.486Z,95956.00
2018-06-18T15:44:50.545Z,95959.00
2018-06-18T15:47:21.973Z,95954.00
2018-06-18T15:49:53.145Z,95962.00
2018-06-18T15:52:24.627Z,95958.00
2018-06-18T15:54:55.810Z,95958.00
2018-06-18T15:57:27.137Z,95954.00
2018-06-18T15:59:58.311Z,95956.00
2018-06-18T16:02:29.569Z,95957.00
2018-06-18T16:05:00.683Z,95959.00
2018-06-18T16:07:32.795Z,95964.00
2018-06-18T16:10:04.481Z,95962.00
2018-06-18T16:12:35.787Z,95968.00
2018-06-18T16:15:07.254Z,95968.00
2018-06-18T16:17:38.727Z,95966.00
2018-06-18T16:20:09.880Z,95960.00
2018-06-18T16:22:41.224Z,95965.00
2018-06-18T16:25:13.888Z,95966.00
2018-06-18T16:27:47.223Z,95968.00
2018-06-18T16:30:22.700Z,95968.00
2018-06-18T16:32:56.851Z,95968.00
2018-06-18T16:35:32.819Z,95974.00
2018-06-18T16:38:06.368Z,95963.00
2018-06-18T16:40:40.500Z,95967.00
2018-06-18T16:43:17.355Z,95971.00
2018-06-18T16:45:49.897Z,95964.00
2018-06-18T16:48:23.077Z,95962.00
2018-06-18T16:50:57.089Z,95961.00
2018-06-18T16:53:29.788Z,95966.00
2018-06-18T16:56:00.964Z,95965.00
2018-06-18T16:58:32.310Z,95968.00
2018-06-18T17:01:03.363Z,95959.00
2018-06-18T17:03:34.675Z,95956.00
2018-06-18T17:06:07.832Z,95969.00
2018-06-18T17:08:39.248Z,95964.00
2018-06-18T17:11:10.401Z,95961.00
2018-06-18T17:13:42.289Z,95968.00
2018-06-18T17:16:14.370Z,95968.00
2018-06-18T17:18:45.799Z,95962.00
2018-06-18T17:21:19.111Z,95970.00
2018-06-18T17:23:50.882Z,95968.00
2018-06-18T17:26:22.248Z,95973.00
2018-06-18T17:28:53.312Z,95966.00
2018-06-18T17:31:25.508Z,95971.00
2018-06-18T17:33:56.997Z,95968.00
2018-06-18T17:36:28.422Z,95978.00
2018-06-18T17:38:59.583Z,95970.00
2018-06-18T17:41:30.962Z,95969.00
2018-06-18T17:44:01.973Z,95974.00
2018-06-18T17:46:33.471Z,95976.00
2018-06-18T17:49:04.629Z,95975.00
2018-06-18T17:51:36.416Z,95972.00
2018-06-18T17:54:07.451Z,95975.00
2018-06-18T17:56:38.613Z,95975.00
2018-06-18T17:59:09.941Z,95974.00
2018-06-18T18:01:41.190Z,95973.00
2018-06-18T18:04:12.206Z,95977.00
2018-06-18T18:06:44.077Z,95981.00
2018-06-18T18:09:15.181Z,95979.00
2018-06-18T18:11:46.370Z,95979.00
2018-06-18T18:14:17.676Z,95976.00
2018-06-18T18:17:00.085Z,95976.00
2018-06-18T18:19:35.445Z,95977.00
2018-06-18T18:22:07.719Z,95976.00
2018-06-18T18:24:40.546Z,95982.00
2018-06-18T18:27:12.453Z,95980.00
2018-06-18T18:29:43.832Z,95979.00
2018-06-18T18:32:16.387Z,95980.00
2018-06-18T18:34:48.383Z,95976.00
2018-06-18T18:37:19.713Z,95979.00
2018-06-18T18:39:51.102Z,95985.00
2018-06-18T18:42:23.379Z,95986.00
2018-06-18T18:44:55.387Z,95995.00
2018-06-18T18:47:28.033Z,95994.00
2018-06-18T18:49:59.575Z,95987.00
2018-06-18T18:52:30.965Z,95985.00
2018-06-18T18:55:43.090Z,95986.00
2018-06-18T18:58:25.290Z,95994.00
2018-06-18T19:00:57.896Z,95985.00
2018-06-18T19:03:30.340Z,95990.00
2018-06-18T19:06:02.068Z,95994.00
2018-06-18T19:08:33.926Z,95995.00
2018-06-18T19:11:06.193Z,96001.00
2018-06-18T19:13:38.643Z,96007.00
2018-06-18T19:16:10.425Z,96006.00
2018-06-18T19:18:45.815Z,96010.00
2018-06-18T19:21:17.426Z,96012.00
2018-06-18T19:23:49.498Z,96014.00
2018-06-18T19:26:21.405Z,96019.00
2018-06-18T19:28:53.542Z,96024.00
2018-06-18T19:31:27.757Z,96026.00
2018-06-18T19:34:09.350Z,96026.00
2018-06-18T19:36:46.228Z,96028.00
2018-06-18T19:39:18.421Z,96034.00
2018-06-18T19:41:49.787Z,96040.00
2018-06-18T19:44:21.111Z,96041.00
2018-06-18T19:49:18.365Z,96044.00
2018-06-18T19:51:58.645Z,96052.00
2018-06-18T19:54:34.249Z,96058.00
2018-06-18T19:57:05.269Z,96059.00
2018-06-18T19:59:36.637Z,96057.00
2018-06-18T20:02:07.913Z,96061.00
2018-06-18T20:04:39.723Z,96064.00
2018-06-18T20:07:11.997Z,96065.00
2018-06-18T20:09:45.118Z,96067.00
2018-06-18T20:12:16.139Z,96075.00
2018-06-18T20:14:47.665Z,96074.00
2018-06-18T20:17:18.935Z,96076.00
2018-06-18T20:19:50.295Z,96073.00
2018-06-18T20:22:21.313Z,96079.00
2018-06-18T20:24:53.412Z,96077.00
2018-06-18T20:27:24.486Z,96079.00
2018-06-18T20:29:55.909Z,96084.00
2018-06-18T20:32:26.810Z,96085.00
2018-06-18T20:34:58.772Z,96083.00
2018-06-18T20:37:29.771Z,96081.00
2018-06-18T20:40:01.160Z,96088.00
2018-06-18T20:42:32.653Z,96091.00
2018-06-18T20:45:03.668Z,96094.00
2018-06-18T20:47:35.608Z,96098.00
2018-06-18T20:50:09.233Z,96100.00
2018-06-18T20:52:40.434Z,96105.00
2018-06-18T20:55:12.071Z,96100.00
2018-06-18T20:57:43.195Z,96101.00
2018-06-18T21:00:14.295Z,96113.00
2018-06-18T21:02:45.639Z,96113.00
2018-06-18T21:05:16.853Z,96114.00
2018-06-18T21:07:48.283Z,96114.00
2018-06-18T21:10:19.854Z,96115.00
2018-06-18T21:12:50.997Z,96121.00
2018-06-18T21:15:22.436Z,96115.00
2018-06-18T21:17:54.542Z,96114.00
2018-06-18T21:20:28.339Z,96122.00
2018-06-18T21:22:59.305Z,96122.00
2018-06-18T21:25:30.669Z,96121.00
2018-06-18T21:28:02.201Z,96120.00
2018-06-18T21:30:33.673Z,96121.00
2018-06-18T21:33:04.955Z,96125.00
2018-06-18T21:35:36.085Z,96127.00
2018-06-18T21:38:07.020Z,96126.00
2018-06-18T21:40:38.113Z,96132.00
2018-06-18T21:43:09.555Z,96134.00
2018-06-18T21:45:40.870Z,96125.00
2018-06-18T21:48:11.893Z,96129.00
2018-06-18T21:50:43.339Z,96131.00
2018-06-18T21:53:14.319Z,96130.00
2018-06-18T21:55:45.545Z,96134.00
2018-06-18T21:58:16.618Z,96131.00
2018-06-18T22:00:50.473Z,96131.00
2018-06-18T22:03:21.668Z,96124.00
2018-06-18T22:05:53.006Z,96126.00
2018-06-18T22:08:25.332Z,96126.00
2018-06-18T22:10:56.835Z,96131.00
2018-06-18T22:13:28.085Z,96121.00
2018-06-18T22:15:59.446Z,96121.00
2018-06-18T22:18:30.555Z,96115.00
2018-06-18T22:21:01.940Z,96113.00
2018-06-18T22:23:33.133Z,96113.00
2018-06-18T22:26:04.248Z,96106.00
2018-06-18T22:28:37.817Z,96118.00
2018-06-18T22:31:08.957Z,96118.00
2018-06-18T22:33:39.886Z,96110.00
2018-06-18T22:36:11.249Z,96105.00
2018-06-18T22:38:42.488Z,96111.00
2018-06-18T22:41:14.317Z,96111.00
2018-06-18T22:43:45.804Z,96109.00
2018-06-18T22:46:17.231Z,96108.00
2018-06-18T22:48:48.364Z,96112.00
2018-06-18T22:51:19.569Z,96110.00
2018-06-18T22:53:50.587Z,96114.00
2018-06-18T22:56:22.018Z,96113.00
2018-06-18T22:58:53.001Z,96113.00
2018-06-18T23:01:24.016Z,96108.00
2018-06-18T23:03:58.028Z,96109.00
2018-06-18T23:06:30.769Z,96098.00
2018-06-18T23:09:07.258Z,96101.00
2018-06-18T23:11:38.449Z,96104.00
2018-06-18T23:14:19.353Z,96094.00
2018-06-18T23:16:50.421Z,96104.00
2018-06-18T23:19:21.421Z,96102.00
2018-06-18T23:21:52.626Z,96093.00
2018-06-18T23:24:23.609Z,96097.00
2018-06-18T23:26:54.879Z,96096.00
2018-06-18T23:29:26.059Z,96102.00
2018-06-18T23:31:57.500Z,96100.00
2018-06-18T23:34:28.547Z,96091.00
2018-06-18T23:36:59.548Z,96094.00
2018-06-18T23:39:30.612Z,96095.00
2018-06-18T23:42:01.806Z,96100.00
2018-06-18T23:44:32.943Z,96090.00
2018-06-18T23:47:04.160Z,96104.00
2018-06-18T23:49:35.385Z,96100.00
2018-06-18T23:52:06.642Z,96102.00
2018-06-18T23:54:37.774Z,96109.00
2018-06-18T23:57:09.149Z,96104.00
2018-06-18T23:59:40.456Z,96102.00
